createdAt,value
2022-08-17T00:02:21.188Z,74.84
2022-08-17T00:05:42.369Z,74.41
2022-08-17T00:08:48.562Z,75.65
2022-08-17T00:12:03.970Z,74.93
2022-08-17T00:15:19.793Z,75.03
2022-08-17T00:19:01.528Z,75.39
2022-08-17T00:22:32.711Z,75.33
2022-08-17T00:25:15.731Z,75.31
2022-08-17T00:28:19.513Z,75.44
2022-08-17T00:31:25.205Z,74.95
2022-08-17T00:34:27.937Z,74.34
2022-08-17T00:37:33.058Z,74.43
2022-08-17T00:40:44.744Z,74.64
2022-08-17T00:43:49.538Z,76.34
2022-08-17T00:46:52.150Z,75.40
2022-08-17T00:49:55.434Z,75.61
2022-08-17T00:52:58.439Z,76.02
2022-08-17T00:56:03.838Z,76.70
2022-08-17T00:59:09.711Z,77.68
2022-08-17T01:02:16.275Z,77.50
2022-08-17T01:05:22.385Z,77.88
2022-08-17T01:08:28.056Z,78.10
2022-08-17T01:11:33.238Z,78.08
2022-08-17T01:14:38.029Z,77.93
2022-08-17T01:17:46.792Z,78.62
2022-08-17T01:21:01.278Z,78.73
2022-08-17T01:24:04.608Z,78.44
2022-08-17T01:27:10.092Z,79.46
2022-08-17T01:30:57.810Z,79.55
2022-08-17T01:33:37.911Z,80.01
2022-08-17T01:36:43.394Z,79.87
2022-08-17T01:39:55.309Z,78.88
2022-08-17T01:43:12.467Z,77.65
2022-08-17T01:46:22.287Z,76.08
2022-08-17T01:49:25.455Z,75.80
2022-08-17T01:52:29.024Z,75.96
2022-08-17T01:55:40.717Z,76.31
2022-08-17T01:58:46.467Z,76.66
2022-08-17T02:01:53.753Z,77.18
2022-08-17T02:04:56.845Z,77.60
2022-08-17T02:08:00.911Z,78.03
2022-08-17T02:11:12.407Z,77.44
2022-08-17T02:14:15.645Z,77.65
2022-08-17T02:17:19.203Z,77.95
2022-08-17T02:20:41.159Z,78.96
2022-08-17T02:23:49.011Z,78.24
2022-08-17T02:26:51.789Z,77.81
2022-08-17T02:29:58.164Z,77.91
2022-08-17T02:33:04.181Z,76.80
2022-08-17T02:36:12.688Z,76.79
2022-08-17T02:39:15.668Z,75.63
2022-08-17T02:42:25.739Z,76.05
2022-08-17T02:45:30.108Z,75.88
2022-08-17T02:48:33.240Z,74.72
2022-08-17T02:51:36.901Z,74.64
2022-08-17T02:54:42.388Z,75.71
2022-08-17T02:57:47.320Z,74.55
2022-08-17T03:00:50.762Z,75.29
2022-08-17T03:03:54.108Z,75.56
2022-08-17T03:06:57.285Z,76.04
2022-08-17T03:10:01.603Z,76.10
2022-08-17T03:13:05.207Z,77.07
2022-08-17T03:16:09.207Z,76.63
2022-08-17T03:19:12.685Z,75.02
2022-08-17T03:22:36.128Z,76.76
2022-08-17T03:25:43.359Z,77.59
2022-08-17T03:28:46.812Z,78.02
2022-08-17T03:31:50.926Z,78.20
2022-08-17T03:35:01.036Z,79.14
2022-08-17T03:38:05.474Z,79.46
2022-08-17T03:41:08.673Z,78.76
2022-08-17T03:44:12.183Z,78.89
2022-08-17T03:47:33.213Z,78.29
2022-08-17T03:50:56.420Z,78.37
2022-08-17T03:54:18.615Z,78.07
2022-08-17T03:57:21.762Z,78.10
2022-08-17T04:00:26.649Z,77.67
2022-08-17T04:03:32.889Z,78.60
2022-08-17T04:06:36.502Z,79.34
2022-08-17T04:09:39.721Z,78.50
2022-08-17T04:12:45.971Z,78.97
2022-08-17T04:15:50.123Z,79.39
2022-08-17T04:18:53.617Z,78.00
2022-08-17T04:22:00.915Z,80.33
2022-08-17T04:25:10.347Z,79.74
2022-08-17T04:28:15.990Z,80.59
2022-08-17T04:31:20.019Z,81.54
2022-08-17T04:34:24.890Z,80.64
2022-08-17T04:37:27.494Z,79.78
2022-08-17T04:40:50.348Z,80.31
2022-08-17T04:43:56.360Z,80.15
2022-08-17T04:47:00.074Z,79.76
2022-08-17T04:50:04.328Z,79.87
2022-08-17T04:53:08.875Z,79.59
2022-08-17T04:56:17.008Z,77.46
2022-08-17T04:59:23.068Z,75.64
2022-08-17T05:02:26.920Z,76.33
2022-08-17T05:05:32.779Z,75.64
2022-08-17T05:08:35.921Z,75.52
2022-08-17T05:11:39.852Z,75.30
2022-08-17T05:14:48.984Z,75.22
2022-08-17T05:17:52.702Z,75.69
2022-08-17T05:20:56.807Z,75.35
2022-08-17T05:24:00.561Z,74.98
2022-08-17T05:27:06.534Z,75.03
2022-08-17T05:30:10.881Z,74.44
2022-08-17T05:33:22.006Z,73.77
2022-08-17T05:36:43.063Z,73.62
2022-08-17T05:39:47.228Z,73.68
2022-08-17T05:42:50.898Z,73.06
2022-08-17T05:46:03.587Z,73.22
2022-08-17T05:49:08.213Z,72.46
2022-08-17T05:52:20.162Z,72.03
2022-08-17T05:55:43.577Z,72.11
2022-08-17T05:59:05.202Z,71.70
2022-08-17T06:02:47.463Z,71.73
2022-08-17T06:06:10.201Z,71.73
2022-08-17T06:09:30.200Z,69.71
2022-08-17T06:12:59.029Z,70.95
2022-08-17T06:16:32.930Z,69.98
2022-08-17T06:19:42.167Z,68.97
2022-08-17T06:22:48.577Z,68.24
2022-08-17T06:25:56.062Z,70.84
2022-08-17T06:29:18.784Z,68.99
2022-08-17T06:32:25.590Z,67.54
2022-08-17T06:35:40.312Z,66.32
2022-08-17T06:39:25.439Z,66.28
2022-08-17T06:43:02.055Z,65.62
2022-08-17T06:46:12.837Z,65.37
2022-08-17T06:49:33.236Z,64.47
2022-08-17T06:52:49.935Z,64.73
2022-08-17T06:56:09.210Z,63.08
2022-08-17T06:59:18.349Z,62.62
2022-08-17T07:02:53.081Z,60.56
2022-08-17T07:06:24.956Z,60.39
2022-08-17T07:09:37.813Z,61.57
2022-08-17T07:12:43.559Z,62.81
2022-08-17T07:15:48.104Z,60.27
2022-08-17T07:18:53.191Z,60.68
2022-08-17T07:22:00.625Z,59.33
2022-08-17T07:25:08.137Z,58.76
2022-08-17T07:28:13.891Z,57.49
2022-08-17T07:31:17.878Z,58.33
2022-08-17T07:34:20.733Z,58.17
2022-08-17T07:37:24.894Z,54.31
2022-08-17T07:40:33.665Z,54.50
2022-08-17T07:43:40.155Z,53.73
2022-08-17T07:47:12.698Z,54.12
2022-08-17T07:50:35.016Z,51.78
2022-08-17T07:53:39.220Z,49.81
2022-08-17T07:56:47.771Z,49.17
2022-08-17T08:00:00.068Z,47.96
2022-08-17T08:03:35.306Z,48.08
2022-08-17T08:06:49.743Z,46.96
2022-08-17T08:10:13.903Z,47.31
2022-08-17T08:13:28.985Z,45.68
2022-08-17T08:16:32.106Z,44.12
2022-08-17T08:19:35.437Z,44.75
2022-08-17T08:22:49.052Z,43.67
2022-08-17T08:26:20.951Z,45.21
2022-08-17T08:29:40.602Z,43.58
2022-08-17T08:33:22.091Z,42.97
2022-08-17T08:37:02.128Z,43.45
2022-08-17T08:39:59.045Z,42.11
2022-08-17T08:43:12.690Z,40.84
2022-08-17T08:46:32.411Z,40.02
2022-08-17T08:50:37.554Z,39.74
2022-08-17T08:53:50.653Z,39.59
2022-08-17T08:57:23.290Z,39.21
2022-08-17T09:00:26.989Z,39.26
2022-08-17T09:04:17.891Z,37.85
2022-08-17T09:07:38.623Z,38.46
2022-08-17T09:11:02.490Z,37.04
2022-08-17T09:14:25.522Z,35.03
2022-08-17T09:18:30.685Z,35.19
2022-08-17T09:21:55.936Z,35.84
2022-08-17T09:25:21.790Z,35.05
2022-08-17T09:28:38.202Z,34.50
2022-08-17T09:31:52.659Z,32.58
2022-08-17T09:35:00.335Z,33.45
2022-08-17T09:38:55.387Z,32.96
2022-08-17T09:42:07.671Z,33.05
2022-08-17T09:45:30.448Z,31.80
2022-08-17T09:48:36.393Z,31.56
2022-08-17T09:51:43.787Z,31.29
2022-08-17T09:54:47.370Z,30.62
2022-08-17T09:57:53.152Z,29.85
2022-08-17T10:01:21.741Z,30.01
2022-08-17T10:04:40.936Z,29.33
2022-08-17T10:08:21.835Z,28.65
2022-08-17T10:11:54.857Z,28.90
2022-08-17T10:15:17.401Z,27.87
2022-08-17T10:18:34.361Z,27.35
2022-08-17T10:22:01.122Z,26.67
2022-08-17T10:25:37.575Z,25.92
2022-08-17T10:28:49.221Z,25.25
2022-08-17T10:31:59.539Z,25.24
2022-08-17T10:35:11.646Z,24.97
2022-08-17T10:38:27.563Z,23.81
2022-08-17T10:41:41.259Z,24.29
2022-08-17T10:45:04.599Z,24.06
2022-08-17T10:48:07.871Z,22.88
2022-08-17T10:51:13.680Z,22.42
2022-08-17T10:54:25.692Z,23.50
2022-08-17T10:57:34.472Z,21.91
2022-08-17T11:00:40.882Z,21.86
2022-08-17T11:03:54.834Z,21.76
2022-08-17T11:07:21.559Z,23.73
2022-08-17T11:11:03.275Z,21.56
2022-08-17T11:14:19.174Z,22.17
2022-08-17T11:17:41.520Z,22.62
2022-08-17T11:21:02.241Z,21.42
2022-08-17T11:24:09.788Z,21.60
2022-08-17T11:27:35.164Z,24.24
2022-08-17T11:30:51.274Z,22.37
2022-08-17T11:34:04.689Z,22.37
2022-08-17T11:37:26.648Z,23.11
2022-08-17T11:40:52.668Z,24.86
2022-08-17T11:44:29.977Z,23.99
2022-08-17T11:48:26.496Z,23.34
2022-08-17T11:51:54.871Z,21.19
2022-08-17T11:55:17.655Z,22.71
2022-08-17T11:58:39.028Z,22.21
2022-08-17T12:01:55.963Z,22.23
2022-08-17T12:05:15.472Z,22.33
2022-08-17T12:08:21.365Z,21.68
2022-08-17T12:11:55.101Z,21.67
2022-08-17T12:15:15.669Z,21.78
2022-08-17T12:18:30.474Z,20.38
2022-08-17T12:21:51.866Z,19.64
2022-08-17T12:25:00.730Z,20.26
2022-08-17T12:28:07.581Z,21.50
2022-08-17T12:31:44.636Z,22.28
2022-08-17T12:34:50.133Z,22.04
2022-08-17T12:37:53.345Z,19.97
2022-08-17T12:41:00.304Z,20.43
2022-08-17T12:44:24.165Z,21.11
2022-08-17T12:47:30.080Z,21.81
2022-08-17T12:50:41.042Z,20.64
2022-08-17T12:53:52.619Z,21.95
2022-08-17T12:57:03.079Z,20.94
2022-08-17T13:00:16.375Z,20.86
2022-08-17T13:03:26.469Z,20.84
2022-08-17T13:06:34.949Z,21.43
2022-08-17T13:09:40.718Z,20.39
2022-08-17T13:12:44.160Z,20.49
2022-08-17T13:15:53.792Z,21.04
2022-08-17T13:19:15.964Z,22.33
2022-08-17T13:22:23.576Z,21.05
2022-08-17T13:25:27.171Z,21.07
2022-08-17T13:28:36.043Z,21.47
2022-08-17T13:31:49.783Z,21.61
2022-08-17T13:35:15.572Z,21.27
2022-08-17T13:38:51.040Z,21.12
2022-08-17T13:41:56.325Z,19.50
2022-08-17T13:45:00.102Z,20.49
2022-08-17T13:48:17.531Z,20.18
2022-08-17T13:51:29.412Z,20.34
2022-08-17T13:54:35.363Z,20.55
2022-08-17T13:57:40.352Z,21.22
2022-08-17T14:00:44.791Z,21.39
2022-08-17T14:03:48.150Z,22.09
2022-08-17T14:06:58.307Z,21.73
2022-08-17T14:10:12.736Z,21.23
2022-08-17T14:13:16.211Z,22.21
2022-08-17T14:16:20.762Z,21.90
2022-08-17T14:19:25.383Z,21.36
2022-08-17T14:22:31.945Z,21.11
2022-08-17T14:25:34.996Z,22.50
2022-08-17T14:28:38.924Z,21.92
2022-08-17T14:31:59.267Z,21.93
2022-08-17T14:35:04.611Z,22.69
2022-08-17T14:38:08.609Z,23.25
2022-08-17T14:41:11.774Z,22.20
2022-08-17T14:44:16.727Z,22.70
2022-08-17T14:47:20.807Z,22.14
2022-08-17T14:50:27.264Z,22.05
2022-08-17T14:53:32.034Z,22.81
2022-08-17T14:56:37.852Z,23.15
2022-08-17T14:59:41.598Z,23.06
2022-08-17T15:02:56.176Z,23.19
2022-08-17T15:05:59.665Z,24.19
2022-08-17T15:09:03.386Z,24.40
2022-08-17T15:12:07.484Z,24.81
2022-08-17T15:15:12.658Z,24.49
2022-08-17T15:18:16.486Z,25.15
2022-08-17T15:21:20.277Z,24.52
2022-08-17T15:24:24.047Z,25.00
2022-08-17T15:27:32.517Z,26.19
2022-08-17T15:30:37.029Z,25.82
2022-08-17T15:33:40.169Z,24.54
2022-08-17T15:36:49.044Z,25.02
2022-08-17T15:39:53.774Z,27.01
2022-08-17T15:42:57.934Z,25.51
2022-08-17T15:46:12.480Z,26.32
2022-08-17T15:49:17.214Z,26.20
2022-08-17T15:52:23.349Z,26.55
2022-08-17T15:55:28.667Z,26.12
2022-08-17T15:58:34.538Z,26.40
2022-08-17T16:03:01.200Z,25.97
2022-08-17T16:05:13.838Z,27.20
2022-08-17T16:08:21.333Z,27.36
2022-08-17T16:11:28.368Z,26.74
2022-08-17T16:14:33.942Z,26.82
2022-08-17T16:17:41.555Z,27.24
2022-08-17T16:20:46.035Z,28.15
2022-08-17T16:23:52.192Z,28.42
2022-08-17T16:26:55.602Z,28.81
2022-08-17T16:29:59.997Z,29.06
2022-08-17T16:33:06.078Z,29.59
2022-08-17T16:36:09.508Z,30.05
2022-08-17T16:39:13.520Z,28.81
2022-08-17T16:42:25.547Z,29.27
2022-08-17T16:45:40.003Z,29.92
2022-08-17T16:48:46.488Z,29.33
2022-08-17T16:51:49.925Z,29.16
2022-08-17T16:54:55.456Z,29.56
2022-08-17T16:57:58.841Z,29.30
2022-08-17T17:01:01.935Z,30.73
2022-08-17T17:04:06.203Z,29.55
2022-08-17T17:07:20.880Z,29.53
2022-08-17T17:10:29.784Z,30.32
2022-08-17T17:13:47.516Z,31.47
2022-08-17T17:17:13.648Z,30.11
2022-08-17T17:20:25.338Z,30.48
2022-08-17T17:23:54.744Z,31.20
2022-08-17T17:27:29.673Z,32.26
2022-08-17T17:30:42.768Z,33.03
2022-08-17T17:33:54.345Z,33.31
2022-08-17T17:37:03.443Z,32.57
2022-08-17T17:40:14.737Z,34.15
2022-08-17T17:43:38.262Z,34.30
2022-08-17T17:46:45.309Z,34.92
2022-08-17T17:49:52.659Z,37.13
2022-08-17T17:53:04.992Z,36.35
2022-08-17T17:56:43.169Z,36.31
2022-08-17T18:00:11.262Z,34.94
2022-08-17T18:03:42.760Z,36.48
2022-08-17T18:07:16.256Z,36.24
2022-08-17T18:10:49.262Z,35.39
2022-08-17T18:14:31.709Z,37.29
2022-08-17T18:17:36.530Z,36.83
2022-08-17T18:20:53.985Z,35.37
2022-08-17T18:24:02.470Z,35.11
2022-08-17T18:27:23.507Z,35.71
2022-08-17T18:30:29.982Z,33.99
2022-08-17T18:33:33.782Z,35.46
2022-08-17T18:36:39.889Z,35.17
2022-08-17T18:39:43.186Z,35.66
2022-08-17T18:43:11.167Z,34.38
2022-08-17T18:46:29.635Z,35.85
2022-08-17T18:49:34.261Z,36.98
2022-08-17T18:52:38.054Z,36.35
2022-08-17T18:55:42.850Z,37.45
2022-08-17T18:59:04.632Z,37.55
2022-08-17T19:02:24.876Z,37.60
2022-08-17T19:05:39.730Z,37.11
2022-08-17T19:08:44.432Z,37.43
2022-08-17T19:11:48.176Z,38.02
2022-08-17T19:14:53.145Z,36.32
2022-08-17T19:18:02.507Z,36.18
2022-08-17T19:21:38.373Z,37.69
2022-08-17T19:24:47.498Z,37.53
2022-08-17T19:28:22.535Z,37.83
2022-08-17T19:31:28.612Z,38.25
2022-08-17T19:34:34.672Z,38.59
2022-08-17T19:37:57.348Z,37.60
2022-08-17T19:41:24.020Z,38.12
2022-08-17T19:44:51.713Z,38.33
2022-08-17T19:48:14.873Z,39.11
2022-08-17T19:51:24.566Z,39.29
2022-08-17T19:54:38.220Z,38.26
2022-08-17T19:58:11.444Z,40.05
2022-08-17T20:01:34.836Z,38.61
2022-08-17T20:04:43.796Z,38.86
2022-08-17T20:07:56.834Z,38.93
2022-08-17T20:11:09.882Z,38.92
2022-08-17T20:14:41.391Z,38.84
2022-08-17T20:18:00.516Z,38.24
2022-08-17T20:21:27.572Z,38.06
2022-08-17T20:24:43.411Z,37.76
2022-08-17T20:28:22.028Z,38.35
2022-08-17T20:31:57.411Z,38.78
2022-08-17T20:35:27.736Z,38.43
2022-08-17T20:38:50.460Z,38.10
2022-08-17T20:42:08.091Z,38.43
2022-08-17T20:45:25.021Z,37.54
2022-08-17T20:48:38.288Z,38.16
2022-08-17T20:52:07.995Z,37.02
2022-08-17T20:55:51.181Z,37.24
2022-08-17T20:58:56.552Z,42.21
2022-08-17T21:02:18.702Z,42.26
2022-08-17T21:05:30.256Z,41.78
2022-08-17T21:08:34.919Z,41.11
2022-08-17T21:11:57.091Z,41.28
2022-08-17T21:15:09.103Z,40.83
2022-08-17T21:18:38.987Z,40.76
2022-08-17T21:21:46.602Z,41.11
2022-08-17T21:25:02.701Z,41.74
2022-08-17T21:28:23.350Z,40.71
2022-08-17T21:31:42.181Z,41.92
2022-08-17T21:35:08.961Z,42.17
2022-08-17T21:38:14.949Z,41.47
2022-08-17T21:41:35.219Z,40.36
2022-08-17T21:44:47.693Z,40.91
2022-08-17T21:48:09.008Z,41.48
2022-08-17T21:51:26.167Z,39.90
2022-08-17T21:54:35.938Z,44.70
2022-08-17T21:57:41.498Z,46.42
2022-08-17T22:01:18.051Z,46.67
2022-08-17T22:04:46.142Z,47.81
2022-08-17T22:07:51.370Z,48.44
2022-08-17T22:11:04.043Z,49.25
2022-08-17T22:14:17.554Z,50.74
2022-08-17T22:17:30.878Z,51.70
2022-08-17T22:20:34.834Z,53.53
2022-08-17T22:24:02.344Z,54.94
2022-08-17T22:27:11.660Z,55.94
2022-08-17T22:30:23.348Z,57.04
2022-08-17T22:33:40.603Z,58.29
2022-08-17T22:36:44.452Z,58.88
2022-08-17T22:39:57.313Z,59.60
2022-08-17T22:43:03.616Z,60.21
2022-08-17T22:46:08.771Z,60.58
2022-08-17T22:49:12.760Z,61.09
2022-08-17T22:52:15.819Z,61.35
2022-08-17T22:55:38.218Z,61.94
2022-08-17T22:59:14.743Z,62.67
2022-08-17T23:02:31.655Z,62.98
2022-08-17T23:05:35.317Z,63.36
2022-08-17T23:08:51.633Z,64.07
2022-08-17T23:11:58.725Z,64.36
2022-08-17T23:15:02.694Z,65.03
2022-08-17T23:18:06.673Z,64.85
2022-08-17T23:21:10.454Z,65.34
2022-08-17T23:24:22.825Z,65.70
2022-08-17T23:27:29.351Z,66.44
2022-08-17T23:30:35.510Z,66.89
2022-08-17T23:33:40.916Z,67.06
2022-08-17T23:36:51.314Z,67.07
2022-08-17T23:39:55.547Z,67.63
2022-08-17T23:42:58.397Z,67.91
2022-08-17T23:46:03.774Z,68.08
2022-08-17T23:49:06.941Z,68.06
2022-08-17T23:52:14.974Z,68.33
2022-08-17T23:55:19.277Z,68.73
2022-08-17T23:58:23.137Z,69.04
